Flight Track Log - Related Links

Times and Time Zones

All times are in EDT time to prevent confusion due to time zone crossing. See the ASQ4209 flight status page for this flight to view local times or setup timezone preferences in your user account.

Time Position Orientation Groundspeed Altitude Reporting Facility
EDT Latitude Longitude Course Direction KTS MPH feet Rate Location/Type
Mon 09:34:37 PM 29.9617 -95.3436 90° East 144 166 700  Level Houston Center
Mon 09:35:26 PM 29.9536 -95.3011 102° East 204 235 2,000 1,426 Climbing Houston Center
Mon 09:36:18 PM 29.9539 -95.2489 90° East 212 244 3,100 1,646 Climbing Houston Center
Mon 09:37:00 PM 29.9834 -94.9694 90° East  Level FlightAware
Mon 09:37:19 PM 29.9578 -95.1661 87° East 247 284 5,100  Level Houston Center
Mon 09:38:00 PM 29.9833 -94.8481 90° East  Level FlightAware
Mon 09:38:20 PM 29.9622 -95.0781 87° East 271 312 7,100  Level Houston Center
Mon 09:39:00 PM 29.9834 -94.7268 90° East  Level FlightAware
Mon 09:39:22 PM 29.9667 -94.9856 87° East 283 326 8,800  Level Houston Center
Mon 09:40:23 PM 29.9711 -94.8903 87° East 292 336 10,400 1,131 Climbing Houston Center
Mon 09:41:24 PM 29.9772 -94.7642 87° East 322 371 11,100 1,024 Climbing Houston Center
Mon 09:42:26 PM 29.9828 -94.6492 87° East 350 403 12,500 1,366 Climbing Houston Center
Mon 09:43:27 PM 29.9869 -94.5347 88° East 356 410 13,900 1,279 Climbing Houston Center
Mon 09:44:28 PM 29.9914 -94.4150 88° East 357 411 15,100 1,122 Climbing Houston Center
Mon 09:45:30 PM 29.9964 -94.2969 87° East 365 420 16,200 1,076 Climbing Houston Center
Mon 09:47:32 PM 30.0267 -94.0533 82° East 384 442 18,400 1,043 Climbing Houston Center
Mon 09:48:34 PM 30.0431 -93.9286 81° East 392 451 19,400 1,024 Climbing Houston Center
Mon 09:49:35 PM 30.0594 -93.8003 82° East 405 466 20,500 1,033 Climbing Houston Center
Mon 09:50:36 PM 30.0747 -93.6708 82° East 410 472 21,500 1,131 Climbing Houston Center
Mon 09:51:37 PM 30.0917 -93.5164 83° East 410 472 22,800 1,122 Climbing Houston Center
Mon 09:52:39 PM 30.1069 -93.3861 82° East 414 476 23,800 1,024 Climbing Houston Center
Mon 09:53:40 PM 30.1217 -93.2544 83° East 418 481 24,900 1,033 Climbing Houston Center
Mon 09:54:41 PM 30.1389 -93.1239 81° East 416 479 25,900 976 Climbing Houston Center
Mon 09:55:43 PM 30.1931 -93.0083 62° Northeast 412 474 26,900 1,024 Climbing Houston Center
Mon 09:56:44 PM 30.2533 -92.8989 57° Northeast 407 468 28,000 1,033 Climbing Houston Center
Mon 09:57:45 PM 30.3136 -92.7878 58° Northeast 411 473 29,000 1,082 Climbing Houston Center
Mon 09:58:46 PM 30.3864 -92.6539 58° Northeast 412 474 30,200 1,122 Climbing Houston Center
Mon 09:59:48 PM 30.4489 -92.5403 57° Northeast 417 480 31,300 1,024 Climbing Houston Center
Mon 10:00:49 PM 30.5036 -92.4361 59° Northeast 414 476 32,300 984 Climbing Houston Center
Mon 10:01:50 PM 30.5647 -92.3222 58° Northeast 416 479 33,300 1,082 Climbing Houston Center
Mon 10:02:51 PM 30.6381 -92.1872 58° Northeast 415 478 34,500 836 Climbing Houston Center
Mon 10:03:52 PM 30.6994 -92.0747 58° Northeast 414 476 35,000 244 Climbing Houston Center
Mon 10:04:54 PM 30.7642 -91.9544 58° Northeast 437 503 35,000  Level Houston Center
Mon 10:05:55 PM 30.8314 -91.8283 58° Northeast 459 528 35,000  Level Houston Center
Mon 10:06:56 PM 30.9008 -91.6981 58° Northeast 474 545 35,000  Level Houston Center
Mon 10:07:57 PM 30.9711 -91.5656 58° Northeast 482 555 35,000  Level Houston Center
Mon 10:08:58 PM 31.0414 -91.4350 58° Northeast 479 551 35,000  Level Houston Center
Mon 10:09:59 PM 31.1064 -91.3097 59° Northeast 475 547 35,000  Level Houston Center
Mon 10:11:00 PM 31.1894 -91.1514 58° Northeast 476 548 35,000  Level Houston Center
Mon 10:12:02 PM 31.2581 -91.0189 59° Northeast 474 545 35,000  Level Houston Center
Mon 10:13:03 PM 31.3267 -90.8864 59° Northeast 477 549 35,000  Level Houston Center
Mon 10:14:04 PM 31.3947 -90.7536 59° Northeast 476 548 35,000  Level Houston Center
Mon 10:15:05 PM 31.4647 -90.6203 58° Northeast 479 551 35,000  Level Houston Center
Mon 10:16:06 PM 31.5344 -90.4861 59° Northeast 477 549 35,000  Level Houston Center
Mon 10:17:07 PM 31.6022 -90.3533 59° Northeast 479 551 35,000  Level Houston Center
Mon 10:18:08 PM 31.6703 -90.2208 59° Northeast 478 550 35,000  Level Houston Center
Mon 10:19:09 PM 31.7375 -90.0881 59° Northeast 473 544 35,000  Level Houston Center
Mon 10:20:11 PM 31.8050 -89.9553 59° Northeast 472 543 35,000  Level Houston Center
Mon 10:21:12 PM 31.8783 -89.8092 59° Northeast 470 541 35,000  Level Houston Center
Mon 10:21:56 PM 31.9311 -89.7039 59° Northeast 467 537 35,000  Level Memphis Center
Mon 10:22:56 PM 31.9992 -89.5686 59° Northeast 467 537 35,000  Level Memphis Center
Mon 10:23:56 PM 32.0714 -89.4453 55° Northeast 462 532 35,000  Level Memphis Center
Mon 10:24:56 PM 32.1561 -89.3317 49° Northeast 457 526 35,000  Level Memphis Center
Mon 10:25:56 PM 32.2386 -89.2153 50° Northeast 457 526 35,000  Level Memphis Center
Mon 10:26:56 PM 32.3231 -89.1036 48° Northeast 457 526 35,000  Level Memphis Center
Mon 10:27:56 PM 32.4075 -88.9892 49° Northeast 457 526 35,000  Level Memphis Center
Mon 10:28:56 PM 32.4817 -88.8847 50° Northeast 457 526 35,000  Level Memphis Center
Mon 10:29:56 PM 32.5658 -88.7722 48° Northeast 462 532 35,000  Level Memphis Center
Mon 10:30:56 PM 32.6519 -88.6547 49° Northeast 462 532 35,000  Level Memphis Center
Mon 10:31:56 PM 32.7336 -88.5372 50° Northeast 462 532 35,000  Level Memphis Center
Mon 10:33:32 PM 32.8717 -88.3397 50° Northeast 462 532 35,000  Level Atlanta Center
Mon 10:34:32 PM 32.9531 -88.2247 50° Northeast 456 525 35,000  Level Atlanta Center
Mon 10:35:32 PM 33.0383 -88.1100 48° Northeast 456 525 35,000  Level Atlanta Center
Mon 10:36:32 PM 33.1192 -87.9922 51° Northeast 463 533 35,000  Level Atlanta Center
Mon 10:37:32 PM 33.2064 -87.8744 48° Northeast 463 533 35,000  Level Atlanta Center
Mon 10:38:32 PM 33.2875 -87.7539 51° Northeast 463 533 35,000  Level Atlanta Center
Mon 10:39:32 PM 33.3700 -87.6406 49° Northeast 463 533 35,000  Level Atlanta Center
Mon 10:40:32 PM 33.4528 -87.5244 49° Northeast 463 533 35,000  Level Atlanta Center
Mon 10:41:32 PM 33.5311 -87.4106 50° Northeast 452 520 35,000  Level Atlanta Center
Mon 10:42:32 PM 33.6114 -87.2964 50° Northeast 446 513 35,000  Level Atlanta Center
Mon 10:43:32 PM 33.6894 -87.1794 51° Northeast 446 513 35,000  Level Atlanta Center
Mon 10:44:32 PM 33.7717 -87.0625 50° Northeast 446 513 35,000  Level Atlanta Center
Mon 10:45:32 PM 33.8517 -86.9478 50° Northeast 446 513 35,000  Level Atlanta Center
Mon 10:46:32 PM 33.9231 -86.8425 51° Northeast 446 513 35,000  Level Atlanta Center
Mon 10:47:32 PM 34.0028 -86.7275 50° Northeast 441 507 35,000  Level Atlanta Center
Mon 10:48:32 PM 34.0803 -86.6144 50° Northeast 441 507 35,000  Level Atlanta Center
Mon 10:49:32 PM 34.1622 -86.4967 50° Northeast 441 507 35,000  Level Atlanta Center
Mon 10:50:32 PM 34.2436 -86.3808 50° Northeast 441 507 35,000 -50 Level Atlanta Center
Mon 10:51:32 PM 34.3231 -86.2622 51° Northeast 441 507 34,900 -500 Descending Atlanta Center
Mon 10:52:32 PM 34.4025 -86.1436 51° Northeast 441 507 34,000 -900 Descending Atlanta Center
Mon 10:53:32 PM 34.4817 -86.0269 51° Northeast 441 507 33,100 -950 Descending Atlanta Center
Mon 10:54:32 PM 34.5586 -85.9103 51° Northeast 441 507 32,100 -1,000 Descending Atlanta Center
Mon 10:55:32 PM 34.6458 -85.7833 50° Northeast 441 507 31,100 -950 Descending Atlanta Center
Mon 10:56:32 PM 34.7247 -85.6639 51° Northeast 441 507 30,200 -900 Descending Atlanta Center
Mon 10:57:32 PM 34.8078 -85.5414 50° Northeast 446 513 29,300 -950 Descending Atlanta Center
Mon 10:58:32 PM 34.8886 -85.4189 51° Northeast 457 526 28,300 -950 Descending Atlanta Center
Mon 10:59:32 PM 34.9711 -85.2961 51° Northeast 457 526 27,400 -1,000 Descending Atlanta Center
Mon 11:00:32 PM 35.0497 -85.1728 52° Northeast 457 526 26,300 -1,200 Descending Atlanta Center
Mon 11:01:32 PM 35.1319 -85.0469 51° Northeast 462 532 25,000 -1,150 Descending Atlanta Center
Mon 11:02:32 PM 35.2122 -84.9261 51° Northeast 462 532 24,000 -1,550 Descending Atlanta Center
Mon 11:03:32 PM 35.2881 -84.8072 52° Northeast 457 526 21,900 -2,150 Descending Atlanta Center
Mon 11:04:32 PM 35.3619 -84.6958 51° Northeast 441 507 19,700 -2,050 Descending Atlanta Center
Mon 11:05:32 PM 35.4311 -84.5867 52° Northeast 423 487 17,800 -1,900 Descending Atlanta Center
Mon 11:06:32 PM 35.5025 -84.4800 51° Northeast 410 472 15,900 -1,800 Descending Atlanta Center
Mon 11:07:32 PM 35.5675 -84.3758 52° Northeast 397 457 14,200 -1,750 Descending Atlanta Center
Mon 11:08:32 PM 35.6553 -84.2969 36° Northeast 383 441 12,400 -1,750 Descending Atlanta Center
Mon 11:09:32 PM 35.7306 -84.2306 36° Northeast 361 415 10,700 -1,800 Descending Atlanta Center
Mon 11:10:32 PM 35.7975 -84.1667 38° Northeast 328 377 8,800 -1,900 Descending Atlanta Center
Mon 11:11:32 PM 35.8497 -84.1003 46° Northeast 291 335 6,900 -1,750 Descending Atlanta Center
Mon 11:12:32 PM 35.8997 -84.0361 46° Northeast 267 307 5,300 -1,450 Descending Atlanta Center
Mon 11:13:32 PM 35.9144 -83.9722 74° East 217 250 4,000 -1,300 Descending Atlanta Center

Login

Don't have an account? Register now (free) for customized features, flight alerts, and more!